createdAt,value
2018-01-11T00:00:40.511Z,16.70
2018-01-11T00:03:08.883Z,17.20
2018-01-11T00:05:37.216Z,21.33
2018-01-11T00:08:05.539Z,16.60
2018-01-11T00:10:34.672Z,16.97
2018-01-11T00:13:03.796Z,16.20
2018-01-11T00:15:32.116Z,19.10
2018-01-11T00:18:00.444Z,22.37
2018-01-11T00:20:28.805Z,25.13
2018-01-11T00:22:57.904Z,30.10
2018-01-11T00:25:26.236Z,33.43
2018-01-11T00:27:55.356Z,35.47
2018-01-11T00:30:23.695Z,31.67
2018-01-11T00:32:52.045Z,35.90
2018-01-11T00:35:20.393Z,34.90
2018-01-11T00:37:48.740Z,36.07
2018-01-11T00:40:17.120Z,31.60
2018-01-11T00:42:45.444Z,28.97
2018-01-11T00:45:13.771Z,28.70
2018-01-11T00:47:42.141Z,29.23
2018-01-11T00:50:10.480Z,27.43
2018-01-11T00:52:38.868Z,32.03
2018-01-11T00:55:07.191Z,30.70
2018-01-11T00:57:35.557Z,30.17
2018-01-11T01:00:03.884Z,31.60
2018-01-11T01:02:32.609Z,22.77
2018-01-11T01:05:00.986Z,27.10
2018-01-11T01:07:29.319Z,29.63
2018-01-11T01:09:57.651Z,28.83
2018-01-11T01:12:26.016Z,25.10
2018-01-11T01:14:54.403Z,26.67
2018-01-11T01:17:22.759Z,30.03
2018-01-11T01:19:51.108Z,31.17
2018-01-11T01:22:19.439Z,30.10
2018-01-11T01:24:47.790Z,28.50
2018-01-11T01:27:16.120Z,30.37
2018-01-11T01:29:44.472Z,31.47
2018-01-11T01:32:12.803Z,28.97
2018-01-11T01:34:41.899Z,29.20
2018-01-11T01:37:10.315Z,31.00
2018-01-11T01:39:38.723Z,30.50
2018-01-11T01:42:07.152Z,28.50
2018-01-11T01:44:35.602Z,31.20
2018-01-11T01:47:04.048Z,26.43
2018-01-11T01:49:32.446Z,28.37
2018-01-11T01:52:00.824Z,24.80
2018-01-11T01:54:29.180Z,31.70
2018-01-11T01:56:57.525Z,29.00
2018-01-11T01:59:25.892Z,28.30
2018-01-11T02:01:55.050Z,30.33
2018-01-11T02:04:24.160Z,27.57
2018-01-11T02:06:52.507Z,33.57
2018-01-11T02:09:20.845Z,35.43
2018-01-11T02:11:50.047Z,33.57
2018-01-11T02:14:18.389Z,31.17
2018-01-11T02:16:46.794Z,32.57
2018-01-11T02:19:16.008Z,32.77
2018-01-11T02:21:44.363Z,29.40
2018-01-11T02:24:12.860Z,29.27
2018-01-11T02:26:42.047Z,31.50
2018-01-11T02:29:11.196Z,29.27
2018-01-11T02:31:39.602Z,26.10
2018-01-11T02:34:07.939Z,33.40
2018-01-11T02:36:36.380Z,27.70
2018-01-11T02:39:05.485Z,26.93
2018-01-11T02:41:34.647Z,25.80
2018-01-11T02:44:03.092Z,27.40
2018-01-11T02:46:31.510Z,31.70
2018-01-11T02:48:59.955Z,31.80
2018-01-11T02:51:28.394Z,25.00
2018-01-11T02:53:57.852Z,25.20
2018-01-11T02:56:26.271Z,31.30
2018-01-11T02:58:54.670Z,25.83
2018-01-11T03:01:23.829Z,22.40
2018-01-11T03:03:52.225Z,26.90
2018-01-11T03:06:21.339Z,24.83
2018-01-11T03:08:50.472Z,28.10
2018-01-11T03:11:18.898Z,29.30
2018-01-11T03:13:47.320Z,25.50
2018-01-11T03:16:15.664Z,24.00
2018-01-11T03:18:44.074Z,20.90
2018-01-11T03:21:12.415Z,22.10
2018-01-11T03:23:40.837Z,25.63
2018-01-11T03:26:09.254Z,26.57
2018-01-11T03:28:37.692Z,22.57
2018-01-11T03:31:06.048Z,20.17
2018-01-11T03:33:35.227Z,23.40
2018-01-11T03:36:04.454Z,23.67
2018-01-11T03:38:32.879Z,23.77
2018-01-11T03:41:01.282Z,25.20
2018-01-11T03:43:29.628Z,24.93
2018-01-11T03:45:58.002Z,28.70
2018-01-11T03:48:26.327Z,26.17
2018-01-11T03:50:54.681Z,26.20
2018-01-11T03:53:23.090Z,29.50
2018-01-11T03:55:52.192Z,24.00
2018-01-11T03:58:21.369Z,22.40
2018-01-11T04:00:49.707Z,23.10
2018-01-11T04:03:18.101Z,25.07
2018-01-11T04:05:46.463Z,23.63
2018-01-11T04:08:14.894Z,24.80
2018-01-11T04:10:43.995Z,26.10
2018-01-11T04:13:13.112Z,26.43
2018-01-11T04:15:41.460Z,26.80
2018-01-11T04:18:09.886Z,27.17
2018-01-11T04:20:38.301Z,28.07
2018-01-11T04:23:06.660Z,24.80
2018-01-11T04:25:35.830Z,27.20
2018-01-11T04:28:04.176Z,33.83
2018-01-11T04:30:32.525Z,30.50
2018-01-11T04:33:00.936Z,31.43
2018-01-11T04:35:30.060Z,29.47
2018-01-11T04:37:58.398Z,28.77
2018-01-11T04:40:26.827Z,33.33
2018-01-11T04:42:55.163Z,29.67
2018-01-11T04:45:23.563Z,27.73
2018-01-11T04:47:51.912Z,28.70
2018-01-11T04:50:20.299Z,31.70
2018-01-11T04:52:49.440Z,32.67
2018-01-11T04:55:17.831Z,30.00
2018-01-11T04:57:46.227Z,37.23
2018-01-11T05:00:14.662Z,31.40
2018-01-11T05:02:43.082Z,30.20
2018-01-11T05:05:11.420Z,28.67
2018-01-11T05:07:39.787Z,28.27
2018-01-11T05:10:08.931Z,34.47
2018-01-11T05:12:37.347Z,26.90
2018-01-11T05:15:06.540Z,34.23
2018-01-11T05:17:34.944Z,32.50
2018-01-11T05:20:04.084Z,26.10
2018-01-11T05:22:32.471Z,28.67
2018-01-11T05:25:00.816Z,27.90
2018-01-11T05:27:29.250Z,33.10
2018-01-11T05:29:57.671Z,33.80
2018-01-11T05:32:26.008Z,32.30
2018-01-11T05:34:54.425Z,31.47
2018-01-11T05:37:22.834Z,30.80
2018-01-11T05:39:51.191Z,32.10
2018-01-11T05:42:19.524Z,30.23
2018-01-11T05:44:47.942Z,27.40
2018-01-11T05:47:16.283Z,28.87
2018-01-11T05:49:44.674Z,29.07
2018-01-11T05:52:13.885Z,28.67
2018-01-11T05:54:42.291Z,23.60
2018-01-11T05:57:10.629Z,30.87
2018-01-11T05:59:38.984Z,35.63
2018-01-11T06:02:07.311Z,40.93
2018-01-11T06:04:35.694Z,34.70
2018-01-11T06:07:04.118Z,35.20
2018-01-11T06:09:32.484Z,35.63
2018-01-11T06:12:01.641Z,30.43
2018-01-11T06:14:30.063Z,30.23
2018-01-11T06:16:58.442Z,27.60
2018-01-11T06:19:26.834Z,29.30
2018-01-11T06:21:55.184Z,28.27
2018-01-11T06:24:23.544Z,27.70
2018-01-11T06:26:51.931Z,32.13
2018-01-11T06:29:20.296Z,36.77
2018-01-11T06:31:48.638Z,37.27
2018-01-11T06:34:17.025Z,38.77
2018-01-11T06:36:46.159Z,40.93
2018-01-11T06:39:14.509Z,37.60
2018-01-11T06:41:43.623Z,43.43
2018-01-11T06:44:12.015Z,37.80
2018-01-11T06:46:40.425Z,41.43
2018-01-11T06:49:08.795Z,37.97
2018-01-11T06:51:37.124Z,37.67
2018-01-11T06:54:06.282Z,39.90
2018-01-11T06:56:34.656Z,40.17
2018-01-11T06:59:03.000Z,37.80
2018-01-11T07:01:31.348Z,37.10
2018-01-11T07:04:00.435Z,39.87
2018-01-11T07:06:28.755Z,35.67
2018-01-11T07:08:57.105Z,41.53
2018-01-11T07:11:26.210Z,38.80
2018-01-11T07:13:55.308Z,39.73
2018-01-11T07:16:24.491Z,39.97
2018-01-11T07:18:53.657Z,45.73
2018-01-11T07:21:22.088Z,36.60
2018-01-11T07:23:50.481Z,42.30
2018-01-11T07:26:18.846Z,38.57
2018-01-11T07:28:47.200Z,35.50
2018-01-11T07:31:15.874Z,38.77
2018-01-11T07:33:45.009Z,37.80
2018-01-11T07:36:13.376Z,43.37
2018-01-11T07:38:42.476Z,36.90
2018-01-11T07:41:10.868Z,35.23
2018-01-11T07:43:39.290Z,39.67
2018-01-11T07:46:07.711Z,37.77
2018-01-11T07:48:36.111Z,35.40
2018-01-11T07:51:04.476Z,43.00
2018-01-11T07:53:32.813Z,43.30
2018-01-11T07:56:01.205Z,42.93
2018-01-11T07:58:30.367Z,40.60
2018-01-11T08:00:58.772Z,39.43
2018-01-11T08:03:27.179Z,40.23
2018-01-11T08:05:55.548Z,43.27
2018-01-11T08:08:24.664Z,36.83
2018-01-11T08:10:53.752Z,35.90
2018-01-11T08:13:22.926Z,43.50
2018-01-11T08:15:52.052Z,39.50
2018-01-11T08:18:21.139Z,40.67
2018-01-11T08:20:50.299Z,40.33
2018-01-11T08:23:18.668Z,37.53
2018-01-11T08:25:46.984Z,34.87
2018-01-11T08:28:16.104Z,37.23
2018-01-11T08:30:44.458Z,33.70
2018-01-11T08:33:12.777Z,32.97
2018-01-11T08:35:41.197Z,34.33
2018-01-11T08:38:09.594Z,31.43
2018-01-11T08:40:38.699Z,31.20
2018-01-11T08:43:07.804Z,30.67
2018-01-11T08:45:36.161Z,30.33
2018-01-11T08:48:05.316Z,33.03
2018-01-11T08:50:33.716Z,32.23
2018-01-11T08:53:02.084Z,27.50
2018-01-11T08:55:30.482Z,30.53
2018-01-11T08:57:58.808Z,30.63
2018-01-11T09:00:27.248Z,29.00
2018-01-11T09:02:56.349Z,31.30
2018-01-11T09:05:25.284Z,29.30
2018-01-11T09:07:53.623Z,29.27
2018-01-11T09:10:22.716Z,29.20
2018-01-11T09:12:52.561Z,28.20
2018-01-11T09:15:20.924Z,27.97
2018-01-11T09:17:50.012Z,28.10
2018-01-11T09:20:19.968Z,28.23
2018-01-11T09:22:48.387Z,26.80
2018-01-11T09:25:17.574Z,28.60
2018-01-11T09:27:46.005Z,30.33
2018-01-11T09:30:14.349Z,31.77
2018-01-11T09:32:42.754Z,31.10
2018-01-11T09:35:11.107Z,32.17
2018-01-11T09:37:39.465Z,30.70
2018-01-11T09:40:07.867Z,29.70
2018-01-11T09:42:37.032Z,26.10
2018-01-11T09:45:05.421Z,28.13
2018-01-11T09:47:33.748Z,30.30
2018-01-11T09:50:02.081Z,27.10
2018-01-11T09:52:30.491Z,28.90
2018-01-11T09:54:58.915Z,28.30
2018-01-11T09:57:28.023Z,27.50
2018-01-11T09:59:56.347Z,27.13
2018-01-11T10:02:24.704Z,29.20
2018-01-11T10:04:53.033Z,27.60
2018-01-11T10:07:21.450Z,28.70
2018-01-11T10:09:49.855Z,27.67
2018-01-11T10:12:18.956Z,29.43
2018-01-11T10:14:48.135Z,30.80
2018-01-11T10:17:17.294Z,28.00
2018-01-11T10:19:45.672Z,27.30
2018-01-11T10:22:14.072Z,28.87
2018-01-11T10:24:42.407Z,27.10
2018-01-11T10:27:10.835Z,26.97
2018-01-11T10:29:39.254Z,26.77
2018-01-11T10:32:07.651Z,28.10
2018-01-11T10:34:36.003Z,28.63
2018-01-11T10:37:05.124Z,28.70
2018-01-11T10:39:33.507Z,29.07
2018-01-11T10:42:01.906Z,30.60
2018-01-11T10:44:30.340Z,31.10
2018-01-11T10:46:58.676Z,29.53
2018-01-11T10:49:27.024Z,30.10
2018-01-11T10:51:55.430Z,33.63
2018-01-11T10:54:23.770Z,35.57
2018-01-11T10:56:52.179Z,35.40
2018-01-11T10:59:20.579Z,33.20
2018-01-11T11:01:54.268Z,32.70
2018-01-11T11:04:22.664Z,34.40
2018-01-11T11:06:51.864Z,34.57
2018-01-11T11:09:20.305Z,33.40
2018-01-11T11:11:49.407Z,35.03
2018-01-11T11:14:17.761Z,33.20
2018-01-11T11:16:46.084Z,32.90
2018-01-11T11:19:14.400Z,35.07
2018-01-11T11:21:43.511Z,34.50
2018-01-11T11:24:11.861Z,34.33
2018-01-11T11:26:41.022Z,34.97
2018-01-11T11:29:09.380Z,35.57
2018-01-11T11:31:37.767Z,33.80
2018-01-11T11:34:06.195Z,33.43
2018-01-11T11:36:35.400Z,31.90
2018-01-11T11:39:04.508Z,35.10
2018-01-11T11:41:32.844Z,33.27
2018-01-11T11:44:01.272Z,33.50
2018-01-11T11:49:26.626Z,31.93
2018-01-11T11:51:54.969Z,34.40
2018-01-11T11:54:24.096Z,33.43
2018-01-11T11:56:52.433Z,33.60
2018-01-11T11:59:21.586Z,33.50
2018-01-11T12:01:50.024Z,33.43
2018-01-11T12:04:18.418Z,36.50
2018-01-11T12:06:46.810Z,35.60
2018-01-11T12:09:15.156Z,37.20
2018-01-11T12:11:44.310Z,38.43
2018-01-11T12:14:12.665Z,36.07
2018-01-11T12:16:40.988Z,39.93
2018-01-11T12:19:10.151Z,39.67
2018-01-11T12:21:38.512Z,37.27
2018-01-11T12:24:06.891Z,42.20
2018-01-11T12:26:35.269Z,40.10
2018-01-11T12:29:03.629Z,39.90
2018-01-11T12:31:31.993Z,37.73
2018-01-11T12:34:01.142Z,37.23
2018-01-11T12:36:29.488Z,36.27
2018-01-11T12:38:57.893Z,34.30
2018-01-11T12:41:26.312Z,34.07
2018-01-11T12:43:55.439Z,38.63
2018-01-11T12:46:23.763Z,36.80
2018-01-11T12:48:52.168Z,34.70
2018-01-11T12:51:21.374Z,35.90
2018-01-11T12:53:50.539Z,33.50
2018-01-11T12:56:18.972Z,33.27
2018-01-11T12:58:47.323Z,32.77
2018-01-11T13:01:15.924Z,34.43
2018-01-11T13:03:44.343Z,31.40
2018-01-11T13:06:12.694Z,31.07
2018-01-11T13:08:41.051Z,31.17
2018-01-11T13:11:10.225Z,32.03
2018-01-11T13:13:39.410Z,28.83
2018-01-11T13:16:07.819Z,29.03
2018-01-11T13:18:36.916Z,28.33
2018-01-11T13:21:06.111Z,30.20
2018-01-11T13:23:35.213Z,29.50
2018-01-11T13:26:04.302Z,30.07
2018-01-11T13:28:33.474Z,28.90
2018-01-11T13:31:01.820Z,31.47
2018-01-11T13:33:30.202Z,35.20
2018-01-11T13:35:59.316Z,32.47
2018-01-11T13:38:27.673Z,33.00
2018-01-11T13:40:56.006Z,33.90
2018-01-11T13:43:25.191Z,34.50
2018-01-11T13:45:53.630Z,33.17
2018-01-11T13:48:21.955Z,32.33
2018-01-11T13:50:50.306Z,32.33
2018-01-11T13:53:18.644Z,32.50
2018-01-11T13:55:47.030Z,32.40
2018-01-11T13:58:15.380Z,32.00
2018-01-11T14:00:44.532Z,33.17
2018-01-11T14:03:12.905Z,33.67
2018-01-11T14:05:41.247Z,34.30
2018-01-11T14:08:09.579Z,34.13
2018-01-11T14:10:37.912Z,31.60
2018-01-11T14:13:06.335Z,33.40
2018-01-11T14:15:34.673Z,33.77
2018-01-11T14:18:03.044Z,32.00
2018-01-11T14:20:31.483Z,31.00
2018-01-11T14:22:59.824Z,30.97
2018-01-11T14:25:28.147Z,29.57
2018-01-11T14:27:56.485Z,29.37
2018-01-11T14:30:24.849Z,26.80
2018-01-11T14:32:53.243Z,30.30
2018-01-11T14:35:21.591Z,29.50
2018-01-11T14:37:49.972Z,42.10
2018-01-11T14:40:18.361Z,46.10
2018-01-11T14:42:47.492Z,48.23
2018-01-11T14:45:15.863Z,47.97
2018-01-11T14:47:44.250Z,46.20
2018-01-11T14:50:12.588Z,52.10
2018-01-11T14:52:40.924Z,52.60
2018-01-11T14:55:09.318Z,51.03
2018-01-11T14:57:38.527Z,45.83
2018-01-11T15:00:06.871Z,51.60
2018-01-11T15:02:35.199Z,50.30
2018-01-11T15:05:03.575Z,37.87
2018-01-11T15:07:31.966Z,35.10
2018-01-11T15:10:00.316Z,31.73
2018-01-11T15:12:29.449Z,33.13
2018-01-11T15:14:57.792Z,36.27
2018-01-11T15:17:26.888Z,33.23
2018-01-11T15:19:56.102Z,33.37
2018-01-11T15:22:24.431Z,35.30
2018-01-11T15:24:52.827Z,32.43
2018-01-11T15:27:22.013Z,36.70
2018-01-11T15:29:50.418Z,40.03
2018-01-11T15:32:18.764Z,38.60
2018-01-11T15:34:47.168Z,38.23
2018-01-11T15:37:16.360Z,40.57
2018-01-11T15:39:44.874Z,36.67
2018-01-11T15:42:13.306Z,41.50
2018-01-11T15:44:41.738Z,37.60
2018-01-11T15:47:10.203Z,41.43
2018-01-11T15:49:38.556Z,41.27
2018-01-11T15:52:06.978Z,39.77
2018-01-11T15:54:35.442Z,38.67
2018-01-11T15:57:03.796Z,36.20
2018-01-11T15:59:32.156Z,39.60
2018-01-11T16:02:00.937Z,38.50
2018-01-11T16:04:30.058Z,38.73
2018-01-11T16:07:00.012Z,40.50
2018-01-11T16:09:28.393Z,40.10
2018-01-11T16:11:56.847Z,41.67
2018-01-11T16:14:25.236Z,38.13
2018-01-11T16:16:54.463Z,44.10
2018-01-11T16:19:22.808Z,41.70
2018-01-11T16:21:51.967Z,36.10
2018-01-11T16:24:20.348Z,39.13
2018-01-11T16:26:48.675Z,40.53
2018-01-11T16:29:17.074Z,35.30
2018-01-11T16:31:45.499Z,35.90
2018-01-11T16:34:14.670Z,38.17
2018-01-11T16:36:43.097Z,36.00
2018-01-11T16:39:11.547Z,35.83
2018-01-11T16:41:39.960Z,36.10
2018-01-11T16:44:08.327Z,38.00
2018-01-11T16:46:37.454Z,35.93
2018-01-11T16:49:05.853Z,34.20
2018-01-11T16:51:34.225Z,33.40
2018-01-11T16:54:02.651Z,32.33
2018-01-11T16:56:31.871Z,33.43
2018-01-11T16:59:00.345Z,34.93
2018-01-11T17:01:28.815Z,34.40
2018-01-11T17:03:57.271Z,34.00
2018-01-11T17:06:25.754Z,33.63
2018-01-11T17:08:54.116Z,30.77
2018-01-11T17:11:22.506Z,33.57
2018-01-11T17:13:50.883Z,33.03
2018-01-11T17:16:19.244Z,35.13
2018-01-11T17:18:47.650Z,31.83
2018-01-11T17:21:16.054Z,30.13
2018-01-11T17:23:45.215Z,31.20
2018-01-11T17:26:13.576Z,33.10
2018-01-11T17:28:41.900Z,34.90
2018-01-11T17:31:10.325Z,29.93
2018-01-11T17:33:38.696Z,29.73
2018-01-11T17:36:07.113Z,31.40
2018-01-11T17:38:35.535Z,24.20
2018-01-11T17:41:03.872Z,29.63
2018-01-11T17:43:32.314Z,31.60
2018-01-11T17:46:00.722Z,30.90
2018-01-11T17:48:29.137Z,30.83
2018-01-11T17:50:57.558Z,32.33
2018-01-11T17:53:26.050Z,35.43
2018-01-11T17:55:54.454Z,30.00
2018-01-11T17:58:22.790Z,33.40
2018-01-11T18:00:51.150Z,34.17
2018-01-11T18:03:20.293Z,33.03
2018-01-11T18:05:49.461Z,30.70
2018-01-11T18:08:17.837Z,29.27
2018-01-11T18:10:46.258Z,31.20
2018-01-11T18:13:14.748Z,25.07
2018-01-11T18:15:43.146Z,27.93
2018-01-11T18:18:12.351Z,26.50
2018-01-11T18:20:40.765Z,24.73
2018-01-11T18:23:09.140Z,26.97
2018-01-11T18:25:37.657Z,25.27
2018-01-11T18:28:06.024Z,26.90
2018-01-11T18:30:34.419Z,25.83
2018-01-11T18:33:02.786Z,26.83
2018-01-11T18:35:31.195Z,26.00
2018-01-11T18:37:59.603Z,25.60
2018-01-11T18:40:27.961Z,24.90
2018-01-11T18:42:56.371Z,26.17
2018-01-11T18:45:24.810Z,30.17
2018-01-11T18:47:53.171Z,31.20
2018-01-11T18:50:21.517Z,33.33
2018-01-11T18:52:49.852Z,34.27
2018-01-11T18:55:18.255Z,34.10
2018-01-11T18:57:46.706Z,34.43
2018-01-11T19:00:15.074Z,34.67
2018-01-11T19:02:43.396Z,30.40
2018-01-11T19:05:11.802Z,29.90
2018-01-11T19:07:40.141Z,31.80
2018-01-11T19:10:08.524Z,31.20
2018-01-11T19:12:36.864Z,28.60
2018-01-11T19:15:05.224Z,28.37
2018-01-11T19:17:33.649Z,30.13
2018-01-11T19:20:02.005Z,31.43
2018-01-11T19:22:30.349Z,34.10
2018-01-11T19:24:58.688Z,32.23
2018-01-11T19:27:27.799Z,29.50
2018-01-11T19:29:56.160Z,31.63
2018-01-11T19:32:25.316Z,31.77
2018-01-11T19:34:53.707Z,29.63
2018-01-11T19:37:22.111Z,30.87
2018-01-11T19:39:51.347Z,28.07
2018-01-11T19:42:19.730Z,26.33
2018-01-11T19:44:48.122Z,27.97
2018-01-11T19:47:16.627Z,29.90
2018-01-11T19:49:45.060Z,23.63
2018-01-11T19:52:13.472Z,29.10
2018-01-11T19:54:41.887Z,28.50
2018-01-11T19:57:11.061Z,33.63
2018-01-11T19:59:40.275Z,34.07
2018-01-11T20:02:08.677Z,31.23
2018-01-11T20:04:37.098Z,35.83
2018-01-11T20:07:05.474Z,32.73
2018-01-11T20:09:33.895Z,34.13
2018-01-11T20:12:02.252Z,32.97
2018-01-11T20:14:30.677Z,35.33
2018-01-11T20:16:59.095Z,32.60
2018-01-11T20:19:27.483Z,34.73
2018-01-11T20:21:55.821Z,37.60
2018-01-11T20:24:24.210Z,36.13
2018-01-11T20:26:52.702Z,34.70
2018-01-11T20:29:21.129Z,33.60
2018-01-11T20:31:50.331Z,33.90
2018-01-11T20:34:18.895Z,34.50
2018-01-11T20:36:47.340Z,28.83
2018-01-11T20:39:15.743Z,33.97
2018-01-11T20:41:44.122Z,29.07
2018-01-11T20:44:12.473Z,31.00
2018-01-11T20:46:40.812Z,33.33
2018-01-11T20:49:09.987Z,31.90
2018-01-11T20:51:38.427Z,32.77
2018-01-11T20:54:06.842Z,31.30
2018-01-11T20:56:36.834Z,34.50
2018-01-11T20:59:05.308Z,34.90
2018-01-11T21:01:33.736Z,29.80
2018-01-11T21:04:02.979Z,36.23
2018-01-11T21:06:32.143Z,34.40
2018-01-11T21:09:01.347Z,33.80
2018-01-11T21:11:30.575Z,34.20
2018-01-11T21:13:58.987Z,32.63
2018-01-11T21:16:27.366Z,32.60
2018-01-11T21:18:55.798Z,35.27
2018-01-11T21:21:24.178Z,34.30
2018-01-11T21:23:53.360Z,36.33
2018-01-11T21:26:21.721Z,35.10
2018-01-11T21:28:50.098Z,38.00
2018-01-11T21:31:19.315Z,38.20
2018-01-11T21:33:47.653Z,36.10
2018-01-11T21:36:16.086Z,38.60
2018-01-11T21:38:44.576Z,40.87
2018-01-11T21:41:13.027Z,35.67
2018-01-11T21:43:41.586Z,40.57
2018-01-11T21:46:10.007Z,35.77
2018-01-11T21:48:39.206Z,39.70
2018-01-11T21:51:07.582Z,37.47
2018-01-11T21:53:36.064Z,39.87
2018-01-11T21:56:04.426Z,41.23
2018-01-11T21:58:33.632Z,42.33
2018-01-11T22:01:02.066Z,37.27
2018-01-11T22:03:30.562Z,38.73
2018-01-11T22:05:59.028Z,37.97
2018-01-11T22:08:27.474Z,36.20
2018-01-11T22:10:56.795Z,34.60
2018-01-11T22:13:25.175Z,33.37
2018-01-11T22:15:53.544Z,33.53
2018-01-11T22:18:22.007Z,39.77
2018-01-11T22:20:50.416Z,35.37
2018-01-11T22:23:18.848Z,31.50
2018-01-11T22:25:48.028Z,35.40
2018-01-11T22:28:16.413Z,33.30
2018-01-11T22:30:45.546Z,34.00
2018-01-11T22:33:13.966Z,34.80
2018-01-11T22:35:42.361Z,33.43
2018-01-11T22:38:10.808Z,31.30
2018-01-11T22:40:39.192Z,38.93
2018-01-11T22:43:07.636Z,29.57
2018-01-11T22:45:36.021Z,31.40
2018-01-11T22:48:04.473Z,26.70
2018-01-11T22:50:32.910Z,27.30
2018-01-11T22:53:01.376Z,26.83
2018-01-11T22:55:29.854Z,25.27
2018-01-11T22:57:58.380Z,25.20
2018-01-11T23:00:26.905Z,29.93
2018-01-11T23:02:57.153Z,27.13
2018-01-11T23:05:25.659Z,24.20
2018-01-11T23:07:54.094Z,25.00
2018-01-11T23:10:22.592Z,27.87
2018-01-11T23:12:51.001Z,24.97
2018-01-11T23:15:19.368Z,27.10
2018-01-11T23:17:47.848Z,27.17
2018-01-11T23:20:16.372Z,27.37
2018-01-11T23:22:44.808Z,25.40
2018-01-11T23:25:13.293Z,24.40
2018-01-11T23:27:41.768Z,24.27
2018-01-11T23:30:10.365Z,27.73
2018-01-11T23:32:38.800Z,26.30
2018-01-11T23:35:07.220Z,26.93
2018-01-11T23:37:35.648Z,25.63
2018-01-11T23:40:04.141Z,25.03
2018-01-11T23:42:32.520Z,26.43
2018-01-11T23:45:01.080Z,27.50
2018-01-11T23:47:29.471Z,28.40
2018-01-11T23:49:58.669Z,32.87
2018-01-11T23:52:27.210Z,23.90
2018-01-11T23:54:55.685Z,30.43
2018-01-11T23:57:24.037Z,27.97
2018-01-11T23:59:52.435Z,27.67
